sensor_id;sensor_type;location;lat;lon;timestamp;pressure;altitude;pressure_sealevel;temperature;humidity
39177;BME280;24904;52.208;21.192;2023-01-30T00:03:22;100235.88;;;2.25;77.32
39177;BME280;24904;52.208;21.192;2023-01-30T00:08:28;100232.28;;;2.28;77.31
39177;BME280;24904;52.208;21.192;2023-01-30T00:13:33;100225.52;;;2.33;77.44
39177;BME280;24904;52.208;21.192;2023-01-30T00:18:39;100215.08;;;2.35;77.31
39177;BME280;24904;52.208;21.192;2023-01-30T00:23:44;100202.91;;;2.35;77.35
39177;BME280;24904;52.208;21.192;2023-01-30T00:28:49;100192.17;;;2.35;77.14
39177;BME280;24904;52.208;21.192;2023-01-30T00:33:54;100180.80;;;2.38;77.41
39177;BME280;24904;52.208;21.192;2023-01-30T00:39:00;100172.05;;;2.41;77.50
39177;BME280;24904;52.208;21.192;2023-01-30T00:44:06;100162.45;;;2.45;77.43
39177;BME280;24904;52.208;21.192;2023-01-30T00:49:29;100147.31;;;2.46;77.18
39177;BME280;24904;52.208;21.192;2023-01-30T00:54:34;100126.98;;;2.49;77.15
39177;BME280;24904;52.208;21.192;2023-01-30T00:59:39;100116.04;;;2.46;76.99
39177;BME280;24904;52.208;21.192;2023-01-30T01:04:44;100103.92;;;2.45;77.43
39177;BME280;24904;52.208;21.192;2023-01-30T01:09:49;100087.91;;;2.44;77.52
39177;BME280;24904;52.208;21.192;2023-01-30T01:14:55;100084.75;;;2.44;77.38
39177;BME280;24904;52.208;21.192;2023-01-30T01:20:00;100070.27;;;2.41;77.52
39177;BME280;24904;52.208;21.192;2023-01-30T01:25:07;100055.02;;;2.42;77.66
39177;BME280;24904;52.208;21.192;2023-01-30T01:30:13;100039.29;;;2.41;77.62
39177;BME280;24904;52.208;21.192;2023-01-30T01:35:20;100020.66;;;2.42;77.47
39177;BME280;24904;52.208;21.192;2023-01-30T01:40:25;100002.46;;;2.42;77.53
39177;BME280;24904;52.208;21.192;2023-01-30T01:45:50;99990.69;;;2.46;77.24
39177;BME280;24904;52.208;21.192;2023-01-30T01:50:58;99982.08;;;2.46;77.23
39177;BME280;24904;52.208;21.192;2023-01-30T01:56:06;99972.59;;;2.45;77.13
39177;BME280;24904;52.208;21.192;2023-01-30T02:01:12;99960.66;;;2.42;77.05
39177;BME280;24904;52.208;21.192;2023-01-30T02:06:18;99951.82;;;2.43;76.65
39177;BME280;24904;52.208;21.192;2023-01-30T02:11:30;99947.22;;;2.45;77.06
39177;BME280;24904;52.208;21.192;2023-01-30T02:16:38;99939.04;;;2.44;76.81
39177;BME280;24904;52.208;21.192;2023-01-30T02:22:14;99940.19;;;2.43;76.87
39177;BME280;24904;52.208;21.192;2023-01-30T02:33:05;99923.19;;;2.44;76.74
39177;BME280;24904;52.208;21.192;2023-01-30T02:38:27;99913.48;;;2.37;76.60
39177;BME280;24904;52.208;21.192;2023-01-30T02:43:40;99901.14;;;2.34;76.40
39177;BME280;24904;52.208;21.192;2023-01-30T02:48:54;99890.81;;;2.31;76.28
39177;BME280;24904;52.208;21.192;2023-01-30T02:54:01;99879.02;;;2.29;75.99
39177;BME280;24904;52.208;21.192;2023-01-30T02:59:07;99871.73;;;2.23;75.83
39177;BME280;24904;52.208;21.192;2023-01-30T03:04:32;99866.11;;;2.18;75.83
39177;BME280;24904;52.208;21.192;2023-01-30T03:09:46;99860.45;;;2.22;75.71
39177;BME280;24904;52.208;21.192;2023-01-30T03:14:57;99846.83;;;2.24;75.35
39177;BME280;24904;52.208;21.192;2023-01-30T03:20:05;99838.77;;;2.24;75.35
39177;BME280;24904;52.208;21.192;2023-01-30T03:25:12;99824.20;;;2.18;75.49
39177;BME280;24904;52.208;21.192;2023-01-30T03:30:19;99807.72;;;2.16;75.60
39177;BME280;24904;52.208;21.192;2023-01-30T03:35:24;99780.46;;;2.18;75.79
39177;BME280;24904;52.208;21.192;2023-01-30T03:40:30;99765.58;;;2.12;75.79
39177;BME280;24904;52.208;21.192;2023-01-30T03:46:05;99755.02;;;2.11;76.20
39177;BME280;24904;52.208;21.192;2023-01-30T03:51:10;99743.17;;;2.07;76.54
39177;BME280;24904;52.208;21.192;2023-01-30T03:56:15;99742.86;;;2.02;76.65
39177;BME280;24904;52.208;21.192;2023-01-30T04:01:21;99736.12;;;2.02;76.76
39177;BME280;24904;52.208;21.192;2023-01-30T04:06:26;99719.50;;;2.00;76.47
39177;BME280;24904;52.208;21.192;2023-01-30T04:11:31;99720.98;;;1.94;76.58
39177;BME280;24904;52.208;21.192;2023-01-30T04:16:37;99708.86;;;1.88;76.78
39177;BME280;24904;52.208;21.192;2023-01-30T04:21:51;99694.22;;;1.87;76.76
39177;BME280;24904;52.208;21.192;2023-01-30T04:26:56;99682.06;;;1.84;76.75
39177;BME280;24904;52.208;21.192;2023-01-30T04:32:02;99668.20;;;1.86;76.72
39177;BME280;24904;52.208;21.192;2023-01-30T04:37:11;99656.42;;;1.90;76.51
39177;BME280;24904;52.208;21.192;2023-01-30T04:42:17;99642.32;;;1.89;76.28
39177;BME280;24904;52.208;21.192;2023-01-30T04:47:37;99623.91;;;1.87;76.36
39177;BME280;24904;52.208;21.192;2023-01-30T04:52:42;99618.09;;;1.84;75.94
39177;BME280;24904;52.208;21.192;2023-01-30T04:57:48;99609.80;;;1.84;75.93
39177;BME280;24904;52.208;21.192;2023-01-30T05:02:53;99591.67;;;1.85;75.71
39177;BME280;24904;52.208;21.192;2023-01-30T05:07:58;99590.42;;;1.84;75.36
39177;BME280;24904;52.208;21.192;2023-01-30T05:13:05;99590.16;;;1.82;75.19
39177;BME280;24904;52.208;21.192;2023-01-30T05:18:10;99578.00;;;1.83;75.26
39177;BME280;24904;52.208;21.192;2023-01-30T05:23:15;99569.74;;;1.88;75.40
39177;BME280;24904;52.208;21.192;2023-01-30T05:28:20;99557.58;;;1.91;74.82
39177;BME280;24904;52.208;21.192;2023-01-30T05:33:24;99546.96;;;1.87;74.37
39177;BME280;24904;52.208;21.192;2023-01-30T05:38:30;99529.41;;;1.87;74.44
39177;BME280;24904;52.208;21.192;2023-01-30T05:43:35;99510.94;;;1.92;74.32
39177;BME280;24904;52.208;21.192;2023-01-30T05:48:40;99492.37;;;1.90;74.25
39177;BME280;24904;52.208;21.192;2023-01-30T05:53:45;99494.66;;;1.94;74.23
39177;BME280;24904;52.208;21.192;2023-01-30T05:58:55;99490.35;;;1.95;73.93
39177;BME280;24904;52.208;21.192;2023-01-30T06:03:58;99488.54;;;1.88;73.69
39177;BME280;24904;52.208;21.192;2023-01-30T06:09:04;99482.57;;;1.88;73.86
39177;BME280;24904;52.208;21.192;2023-01-30T06:14:09;99481.39;;;1.83;73.76
39177;BME280;24904;52.208;21.192;2023-01-30T06:19:14;99470.61;;;1.84;73.64
39177;BME280;24904;52.208;21.192;2023-01-30T06:24:19;99453.16;;;1.85;73.68
39177;BME280;24904;52.208;21.192;2023-01-30T06:29:24;99439.95;;;1.83;73.31
39177;BME280;24904;52.208;21.192;2023-01-30T06:34:29;99427.33;;;1.77;73.43
39177;BME280;24904;52.208;21.192;2023-01-30T06:39:34;99419.09;;;1.73;73.35
39177;BME280;24904;52.208;21.192;2023-01-30T06:44:39;99414.99;;;1.76;73.35
39177;BME280;24904;52.208;21.192;2023-01-30T06:49:44;99419.16;;;1.81;73.41
39177;BME280;24904;52.208;21.192;2023-01-30T06:54:51;99425.67;;;1.81;73.10
39177;BME280;24904;52.208;21.192;2023-01-30T06:59:56;99418.36;;;1.80;73.02
39177;BME280;24904;52.208;21.192;2023-01-30T07:05:02;99393.36;;;1.73;72.45
39177;BME280;24904;52.208;21.192;2023-01-30T07:10:09;99390.02;;;1.70;72.57
39177;BME280;24904;52.208;21.192;2023-01-30T07:15:15;99393.92;;;1.74;72.63
39177;BME280;24904;52.208;21.192;2023-01-30T07:20:21;99383.27;;;1.75;72.59
39177;BME280;24904;52.208;21.192;2023-01-30T07:25:26;99377.61;;;1.80;72.55
39177;BME280;24904;52.208;21.192;2023-01-30T07:30:33;99369.86;;;1.87;72.48
39177;BME280;24904;52.208;21.192;2023-01-30T07:35:39;99364.73;;;1.92;72.19
39177;BME280;24904;52.208;21.192;2023-01-30T07:40:44;99363.31;;;1.88;72.36
39177;BME280;24904;52.208;21.192;2023-01-30T07:45:49;99362.98;;;1.82;71.98
39177;BME280;24904;52.208;21.192;2023-01-30T07:50:55;99347.11;;;1.73;72.00
39177;BME280;24904;52.208;21.192;2023-01-30T07:56:04;99335.34;;;1.70;72.26
39177;BME280;24904;52.208;21.192;2023-01-30T08:01:09;99318.95;;;1.62;72.24
39177;BME280;24904;52.208;21.192;2023-01-30T08:06:14;99312.08;;;1.52;72.45
39177;BME280;24904;52.208;21.192;2023-01-30T08:11:19;99311.07;;;1.49;72.90
39177;BME280;24904;52.208;21.192;2023-01-30T08:16:25;99310.76;;;1.49;73.28
39177;BME280;24904;52.208;21.192;2023-01-30T08:21:30;99303.98;;;1.48;73.55
39177;BME280;24904;52.208;21.192;2023-01-30T08:26:35;99297.23;;;1.43;73.84
39177;BME280;24904;52.208;21.192;2023-01-30T08:31:40;99289.77;;;1.40;74.08
39177;BME280;24904;52.208;21.192;2023-01-30T08:36:47;99280.55;;;1.42;74.46
39177;BME280;24904;52.208;21.192;2023-01-30T08:41:52;99278.27;;;1.40;74.49
39177;BME280;24904;52.208;21.192;2023-01-30T08:46:57;99281.86;;;1.34;74.65
39177;BME280;24904;52.208;21.192;2023-01-30T08:52:02;99280.30;;;1.28;74.65
39177;BME280;24904;52.208;21.192;2023-01-30T08:57:07;99275.00;;;1.25;75.00
39177;BME280;24904;52.208;21.192;2023-01-30T09:02:12;99269.81;;;1.27;75.15
39177;BME280;24904;52.208;21.192;2023-01-30T09:07:17;99254.85;;;1.27;75.18
39177;BME280;24904;52.208;21.192;2023-01-30T09:12:22;99240.46;;;1.26;75.21
39177;BME280;24904;52.208;21.192;2023-01-30T09:17:27;99233.56;;;1.23;75.26
39177;BME280;24904;52.208;21.192;2023-01-30T09:27:37;99215.95;;;1.21;75.46
39177;BME280;24904;52.208;21.192;2023-01-30T09:32:44;99207.65;;;1.22;75.42
39177;BME280;24904;52.208;21.192;2023-01-30T09:37:50;99196.98;;;1.19;75.59
39177;BME280;24904;52.208;21.192;2023-01-30T09:43:09;99192.06;;;1.17;75.76
39177;BME280;24904;52.208;21.192;2023-01-30T09:48:20;99181.00;;;1.17;75.71
39177;BME280;24904;52.208;21.192;2023-01-30T09:53:33;99179.52;;;1.11;76.06
39177;BME280;24904;52.208;21.192;2023-01-30T09:58:45;99173.48;;;1.15;76.11
39177;BME280;24904;52.208;21.192;2023-01-30T10:04:04;99158.54;;;1.17;76.20
39177;BME280;24904;52.208;21.192;2023-01-30T10:09:16;99151.05;;;1.17;76.50
39177;BME280;24904;52.208;21.192;2023-01-30T10:20:22;99127.61;;;1.22;76.53
39177;BME280;24904;52.208;21.192;2023-01-30T10:25:39;99118.77;;;1.23;76.57
39177;BME280;24904;52.208;21.192;2023-01-30T10:30:48;99112.95;;;1.23;76.80
39177;BME280;24904;52.208;21.192;2023-01-30T10:36:00;99105.26;;;1.21;76.92
39177;BME280;24904;52.208;21.192;2023-01-30T10:41:12;99093.81;;;1.26;77.14
39177;BME280;24904;52.208;21.192;2023-01-30T10:46:33;99093.31;;;1.25;77.15
39177;BME280;24904;52.208;21.192;2023-01-30T10:51:45;99082.95;;;1.25;77.37
39177;BME280;24904;52.208;21.192;2023-01-30T10:56:59;99076.18;;;1.34;77.66
39177;BME280;24904;52.208;21.192;2023-01-30T11:02:18;99069.11;;;1.32;77.71
39177;BME280;24904;52.208;21.192;2023-01-30T11:07:29;99067.79;;;1.35;77.78
39177;BME280;24904;52.208;21.192;2023-01-30T11:12:35;99056.50;;;1.38;77.90
39177;BME280;24904;52.208;21.192;2023-01-30T11:17:41;99056.32;;;1.45;77.90
39177;BME280;24904;52.208;21.192;2023-01-30T11:22:50;99047.79;;;1.50;78.22
39177;BME280;24904;52.208;21.192;2023-01-30T11:28:02;99034.40;;;1.50;78.10
39177;BME280;24904;52.208;21.192;2023-01-30T11:33:12;99030.66;;;1.52;78.35
39177;BME280;24904;52.208;21.192;2023-01-30T11:38:23;99018.53;;;1.57;78.35
39177;BME280;24904;52.208;21.192;2023-01-30T11:43:29;99013.52;;;1.58;78.41
39177;BME280;24904;52.208;21.192;2023-01-30T11:48:35;99001.53;;;1.65;78.74
39177;BME280;24904;52.208;21.192;2023-01-30T11:53:48;98996.14;;;1.69;78.86
39177;BME280;24904;52.208;21.192;2023-01-30T11:58:57;98999.88;;;1.76;78.60
39177;BME280;24904;52.208;21.192;2023-01-30T12:04:07;98999.06;;;1.83;78.79
39177;BME280;24904;52.208;21.192;2023-01-30T12:09:32;98991.60;;;1.89;78.78
39177;BME280;24904;52.208;21.192;2023-01-30T12:14:40;98986.70;;;1.91;78.77
39177;BME280;24904;52.208;21.192;2023-01-30T12:19:53;98984.34;;;1.89;78.64
39177;BME280;24904;52.208;21.192;2023-01-30T12:25:02;98982.36;;;1.94;78.88
39177;BME280;24904;52.208;21.192;2023-01-30T12:30:21;98973.41;;;1.95;78.79
39177;BME280;24904;52.208;21.192;2023-01-30T12:35:39;98966.38;;;1.95;79.04
39177;BME280;24904;52.208;21.192;2023-01-30T12:40:50;98960.02;;;2.01;78.81
39177;BME280;24904;52.208;21.192;2023-01-30T12:46:06;98964.63;;;2.06;78.98
39177;BME280;24904;52.208;21.192;2023-01-30T12:51:22;98968.56;;;2.10;78.93
39177;BME280;24904;52.208;21.192;2023-01-30T12:56:47;98966.02;;;2.07;78.83
39177;BME280;24904;52.208;21.192;2023-01-30T13:02:13;98967.25;;;2.02;79.30
39177;BME280;24904;52.208;21.192;2023-01-30T13:07:26;98969.14;;;2.01;78.85
39177;BME280;24904;52.208;21.192;2023-01-30T13:12:39;98961.69;;;1.99;79.18
39177;BME280;24904;52.208;21.192;2023-01-30T13:17:55;98952.96;;;2.03;79.19
39177;BME280;24904;52.208;21.192;2023-01-30T13:23:08;98955.52;;;2.07;79.34
39177;BME280;24904;52.208;21.192;2023-01-30T13:28:19;98953.80;;;2.06;79.59
39177;BME280;24904;52.208;21.192;2023-01-30T13:33:29;98952.10;;;2.03;79.51
39177;BME280;24904;52.208;21.192;2023-01-30T13:38:34;98946.27;;;2.01;79.75
39177;BME280;24904;52.208;21.192;2023-01-30T13:43:43;98946.44;;;1.99;80.00
39177;BME280;24904;52.208;21.192;2023-01-30T13:48:59;98946.70;;;1.86;80.53
39177;BME280;24904;52.208;21.192;2023-01-30T13:54:15;98948.41;;;1.83;80.53
39177;BME280;24904;52.208;21.192;2023-01-30T13:59:38;98946.55;;;1.80;80.87
39177;BME280;24904;52.208;21.192;2023-01-30T14:04:50;98936.14;;;1.82;81.11
39177;BME280;24904;52.208;21.192;2023-01-30T14:10:15;98929.73;;;1.84;81.26
39177;BME280;24904;52.208;21.192;2023-01-30T14:15:29;98947.66;;;1.88;81.38
39177;BME280;24904;52.208;21.192;2023-01-30T14:20:35;98960.03;;;1.88;81.47
39177;BME280;24904;52.208;21.192;2023-01-30T14:25:49;98966.13;;;1.94;81.64
39177;BME280;24904;52.208;21.192;2023-01-30T14:30:55;98964.77;;;1.99;81.53
39177;BME280;24904;52.208;21.192;2023-01-30T14:36:35;98970.97;;;2.06;81.53
39177;BME280;24904;52.208;21.192;2023-01-30T14:41:41;98976.19;;;2.08;81.34
39177;BME280;24904;52.208;21.192;2023-01-30T14:46:46;98976.26;;;2.11;81.36
39177;BME280;24904;52.208;21.192;2023-01-30T14:51:57;98979.89;;;2.18;80.93
39177;BME280;24904;52.208;21.192;2023-01-30T14:57:04;98983.13;;;2.21;81.18
39177;BME280;24904;52.208;21.192;2023-01-30T15:02:25;98980.65;;;2.28;81.05
39177;BME280;24904;52.208;21.192;2023-01-30T15:07:36;98978.04;;;2.33;80.99
39177;BME280;24904;52.208;21.192;2023-01-30T15:13:05;98975.65;;;2.34;80.94
39177;BME280;24904;52.208;21.192;2023-01-30T15:18:31;98978.52;;;2.37;80.83
39177;BME280;24904;52.208;21.192;2023-01-30T15:23:53;98977.92;;;2.38;80.72
39177;BME280;24904;52.208;21.192;2023-01-30T15:29:21;98971.09;;;2.49;80.71
39177;BME280;24904;52.208;21.192;2023-01-30T15:34:30;98974.62;;;2.58;81.05
39177;BME280;24904;52.208;21.192;2023-01-30T15:39:36;98984.64;;;2.67;80.76
39177;BME280;24904;52.208;21.192;2023-01-30T15:44:51;98996.65;;;2.72;80.60
39177;BME280;24904;52.208;21.192;2023-01-30T15:50:00;98998.08;;;2.78;80.52
39177;BME280;24904;52.208;21.192;2023-01-30T15:55:12;99008.14;;;2.81;80.38
39177;BME280;24904;52.208;21.192;2023-01-30T16:00:27;98999.37;;;2.88;80.20
39177;BME280;24904;52.208;21.192;2023-01-30T16:05:32;99000.56;;;2.94;80.24
39177;BME280;24904;52.208;21.192;2023-01-30T16:10:44;99013.84;;;2.99;79.97
39177;BME280;24904;52.208;21.192;2023-01-30T16:15:54;99020.02;;;2.98;80.11
39177;BME280;24904;52.208;21.192;2023-01-30T16:21:03;99019.52;;;3.01;79.76
39177;BME280;24904;52.208;21.192;2023-01-30T16:26:11;99010.97;;;3.03;79.94
39177;BME280;24904;52.208;21.192;2023-01-30T16:31:19;99013.82;;;3.06;79.82
39177;BME280;24904;52.208;21.192;2023-01-30T16:36:32;99000.90;;;3.11;79.55
39177;BME280;24904;52.208;21.192;2023-01-30T16:41:42;99007.12;;;3.12;79.61
39177;BME280;24904;52.208;21.192;2023-01-30T16:46:52;99008.62;;;3.18;79.67
39177;BME280;24904;52.208;21.192;2023-01-30T16:52:03;99018.10;;;3.19;79.32
39177;BME280;24904;52.208;21.192;2023-01-30T16:57:22;99025.11;;;3.22;79.35
39177;BME280;24904;52.208;21.192;2023-01-30T17:02:34;99027.73;;;3.22;79.19
39177;BME280;24904;52.208;21.192;2023-01-30T17:07:39;99025.92;;;3.27;79.23
39177;BME280;24904;52.208;21.192;2023-01-30T17:12:47;99021.26;;;3.31;79.33
39177;BME280;24904;52.208;21.192;2023-01-30T17:17:53;99014.34;;;3.34;79.05
39177;BME280;24904;52.208;21.192;2023-01-30T17:23:02;99012.41;;;3.36;78.53
39177;BME280;24904;52.208;21.192;2023-01-30T17:28:10;99019.40;;;3.40;78.87
39177;BME280;24904;52.208;21.192;2023-01-30T17:33:19;99029.44;;;3.41;79.06
39177;BME280;24904;52.208;21.192;2023-01-30T17:38:24;99032.80;;;3.39;78.79
39177;BME280;24904;52.208;21.192;2023-01-30T17:43:29;99037.17;;;3.37;78.98
39177;BME280;24904;52.208;21.192;2023-01-30T17:48:34;99040.59;;;3.33;78.75
39177;BME280;24904;52.208;21.192;2023-01-30T17:53:39;99038.89;;;3.29;78.91
39177;BME280;24904;52.208;21.192;2023-01-30T17:58:44;99034.42;;;3.30;78.61
39177;BME280;24904;52.208;21.192;2023-01-30T18:03:49;99040.52;;;3.24;78.99
39177;BME280;24904;52.208;21.192;2023-01-30T18:08:54;99041.13;;;3.20;78.84
39177;BME280;24904;52.208;21.192;2023-01-30T18:13:59;99039.37;;;3.22;79.19
39177;BME280;24904;52.208;21.192;2023-01-30T18:19:06;99048.39;;;3.23;79.09
39177;BME280;24904;52.208;21.192;2023-01-30T18:24:11;99049.91;;;3.30;79.20
39177;BME280;24904;52.208;21.192;2023-01-30T18:29:16;99048.63;;;3.36;79.07
39177;BME280;24904;52.208;21.192;2023-01-30T18:34:21;99057.35;;;3.29;78.90
39177;BME280;24904;52.208;21.192;2023-01-30T18:39:26;99058.56;;;3.33;78.90
39177;BME280;24904;52.208;21.192;2023-01-30T18:44:31;99055.19;;;3.38;78.75
39177;BME280;24904;52.208;21.192;2023-01-30T18:49:38;99057.41;;;3.41;78.98
39177;BME280;24904;52.208;21.192;2023-01-30T18:54:43;99055.59;;;3.36;78.64
39177;BME280;24904;52.208;21.192;2023-01-30T18:59:48;99049.52;;;3.29;78.31
39177;BME280;24904;52.208;21.192;2023-01-30T19:04:53;99053.31;;;3.29;78.45
39177;BME280;24904;52.208;21.192;2023-01-30T19:09:57;99050.85;;;3.30;78.83
39177;BME280;24904;52.208;21.192;2023-01-30T19:15:03;99052.38;;;3.38;78.88
39177;BME280;24904;52.208;21.192;2023-01-30T19:20:10;99050.45;;;3.42;78.67
39177;BME280;24904;52.208;21.192;2023-01-30T19:25:15;99058.23;;;3.44;78.68
39177;BME280;24904;52.208;21.192;2023-01-30T19:30:20;99057.85;;;3.39;78.45
39177;BME280;24904;52.208;21.192;2023-01-30T19:35:25;99056.86;;;3.37;78.79
39177;BME280;24904;52.208;21.192;2023-01-30T19:40:30;99056.80;;;3.37;78.69
39177;BME280;24904;52.208;21.192;2023-01-30T19:45:35;99054.96;;;3.35;78.62
39177;BME280;24904;52.208;21.192;2023-01-30T19:50:41;99056.15;;;3.32;78.95
39177;BME280;24904;52.208;21.192;2023-01-30T19:55:51;99056.73;;;3.30;78.65
39177;BME280;24904;52.208;21.192;2023-01-30T20:01:05;99064.56;;;3.30;78.84
39177;BME280;24904;52.208;21.192;2023-01-30T20:06:12;99061.48;;;3.19;79.17
39177;BME280;24904;52.208;21.192;2023-01-30T20:11:19;99065.70;;;3.12;79.51
39177;BME280;24904;52.208;21.192;2023-01-30T20:16:25;99070.30;;;3.13;79.42
39177;BME280;24904;52.208;21.192;2023-01-30T20:21:32;99064.27;;;3.18;79.93
39177;BME280;24904;52.208;21.192;2023-01-30T20:26:38;99063.11;;;3.26;79.89
39177;BME280;24904;52.208;21.192;2023-01-30T20:31:43;99065.11;;;3.22;79.87
39177;BME280;24904;52.208;21.192;2023-01-30T20:36:48;99069.38;;;3.18;79.75
39177;BME280;24904;52.208;21.192;2023-01-30T20:41:53;99074.65;;;3.15;80.01
39177;BME280;24904;52.208;21.192;2023-01-30T20:46:58;99103.52;;;3.09;80.36
39177;BME280;24904;52.208;21.192;2023-01-30T20:52:03;99117.46;;;3.02;80.98
39177;BME280;24904;52.208;21.192;2023-01-30T20:57:08;99120.14;;;2.93;81.01
39177;BME280;24904;52.208;21.192;2023-01-30T21:02:13;99123.27;;;2.97;80.93
39177;BME280;24904;52.208;21.192;2023-01-30T21:07:18;99127.98;;;3.01;80.75
39177;BME280;24904;52.208;21.192;2023-01-30T21:12:23;99128.33;;;3.02;80.81
39177;BME280;24904;52.208;21.192;2023-01-30T21:17:28;99135.02;;;3.11;80.81
39177;BME280;24904;52.208;21.192;2023-01-30T21:22:33;99145.34;;;3.15;80.60
39177;BME280;24904;52.208;21.192;2023-01-30T21:27:38;99151.20;;;3.14;80.18
39177;BME280;24904;52.208;21.192;2023-01-30T21:32:43;99158.34;;;3.14;80.28
39177;BME280;24904;52.208;21.192;2023-01-30T21:37:48;99161.79;;;3.09;80.01
39177;BME280;24904;52.208;21.192;2023-01-30T21:43:11;99161.64;;;2.95;80.13
39177;BME280;24904;52.208;21.192;2023-01-30T21:48:18;99159.65;;;2.89;80.50
39177;BME280;24904;52.208;21.192;2023-01-30T21:53:23;99157.23;;;2.91;80.56
39177;BME280;24904;52.208;21.192;2023-01-30T21:58:29;99167.05;;;2.91;80.61
39177;BME280;24904;52.208;21.192;2023-01-30T22:03:35;99170.59;;;2.90;80.21
39177;BME280;24904;52.208;21.192;2023-01-30T22:08:40;99176.36;;;2.84;80.05
39177;BME280;24904;52.208;21.192;2023-01-30T22:13:45;99181.22;;;2.81;80.53
39177;BME280;24904;52.208;21.192;2023-01-30T22:18:54;99181.79;;;2.81;80.30
39177;BME280;24904;52.208;21.192;2023-01-30T22:23:59;99175.95;;;2.83;80.45
39177;BME280;24904;52.208;21.192;2023-01-30T22:29:05;99189.08;;;2.82;80.25
39177;BME280;24904;52.208;21.192;2023-01-30T22:34:10;99194.79;;;2.78;80.27
39177;BME280;24904;52.208;21.192;2023-01-30T22:39:15;99199.86;;;2.76;80.45
39177;BME280;24904;52.208;21.192;2023-01-30T22:44:20;99205.89;;;2.82;80.17
39177;BME280;24904;52.208;21.192;2023-01-30T22:49:25;99215.00;;;2.81;79.87
39177;BME280;24904;52.208;21.192;2023-01-30T22:54:30;99218.64;;;2.81;80.37
39177;BME280;24904;52.208;21.192;2023-01-30T22:59:35;99215.65;;;2.85;80.05
39177;BME280;24904;52.208;21.192;2023-01-30T23:04:40;99216.98;;;2.89;79.83
39177;BME280;24904;52.208;21.192;2023-01-30T23:09:45;99215.84;;;2.84;80.12
39177;BME280;24904;52.208;21.192;2023-01-30T23:14:50;99224.42;;;2.86;80.13
39177;BME280;24904;52.208;21.192;2023-01-30T23:19:55;99221.61;;;2.89;80.04
39177;BME280;24904;52.208;21.192;2023-01-30T23:25:00;99222.50;;;2.94;80.26
39177;BME280;24904;52.208;21.192;2023-01-30T23:30:07;99223.75;;;2.94;80.14
39177;BME280;24904;52.208;21.192;2023-01-30T23:35:12;99226.16;;;2.97;79.92
39177;BME280;24904;52.208;21.192;2023-01-30T23:40:19;99225.17;;;2.98;79.78
39177;BME280;24904;52.208;21.192;2023-01-30T23:45:24;99228.16;;;3.01;80.03
39177;BME280;24904;52.208;21.192;2023-01-30T23:50:30;99231.88;;;3.05;79.86
39177;BME280;24904;52.208;21.192;2023-01-30T23:55:35;99227.86;;;3.11;80.11
